EDT,Max TemperatureF,Mean TemperatureF,Min TemperatureF,Max Dew PointF,MeanDew PointF,Min DewpointF,Max Humidity, Mean Humidity, Min Humidity, Max Sea Level PressureIn, Mean Sea Level PressureIn, Min Sea Level PressureIn, Max VisibilityMiles, Mean VisibilityMiles, Min VisibilityMiles, Max Wind SpeedMPH, Mean Wind SpeedMPH, Max Gust SpeedMPH,PrecipitationIn, CloudCover, Events, WindDirDegrees
2013-5-1,75,68,62,64,63,59,100,83,65,30.11,30.07,30.03,10,9,0,17,6,21,0.00,5,,71
2013-5-2,71,66,62,66,64,61,100,93,83,30.09,30.03,29.98,10,7,3,17,9,23,0.00,8,,66
2013-5-3,69,66,62,66,63,63,100,94,78,29.98,29.92,29.89,10,7,3,18,13,28,0.00,7,,69
2013-5-4,71,66,60,64,62,59,100,90,69,29.89,29.82,29.77,10,7,3,22,12,36,0.00,8,,88
2013-5-5,75,66,57,66,55,48,100,73,38,29.88,29.81,29.71,10,9,1,16,10,22,0.00,4,,267
2013-5-6,69,60,50,57,49,46,88,67,46,29.98,29.93,29.86,10,10,10,12,7,18,0.00,4,,263
2013-5-7,75,66,55,55,54,52,94,72,47,30.02,29.95,29.91,10,10,7,18,7,24,0.00,4,,254
2013-5-8,80,66,51,57,54,50,100,69,39,30.10,30.05,30.00,10,10,10,12,2,17,0.00,1,,271
2013-5-9,84,72,59,64,60,57,100,68,40,30.14,30.10,30.06,10,9,2,8,3,,0.00,1,,279
2013-5-10,87,73,59,66,62,57,100,70,40,30.13,30.06,29.98,10,10,7,12,3,17,0.00,0,,205
2013-5-11,86,74,62,68,64,61,100,76,48,30.03,29.98,29.94,10,10,7,16,6,22,0.00,2,,236
2013-5-12,69,68,66,66,66,66,100,94,88,29.99,29.96,29.93,10,10,7,9,6,,0.00,6,,240
2013-5-13,78,68,55,48,46,43,77,44,30,30.17,30.12,30.09,10,10,10,14,7,20,0.00,0,,326
2013-5-14,80,64,48,54,48,45,93,60,30,30.27,30.21,30.17,10,10,10,10,2,,0.00,0,,28
2013-5-15,89,73,57,63,58,54,88,60,38,30.23,30.15,30.06,10,10,10,10,4,,0.00,0,,228
2013-5-16,87,76,64,68,64,61,94,69,43,30.13,30.07,30.01,10,10,10,9,3,,0.00,0,,196
2013-5-17,91,78,64,70,66,63,100,65,41,30.12,30.07,30.03,10,10,7,13,4,18,0.00,1,,171
2013-5-18,89,79,69,72,69,66,100,76,49,30.13,30.09,30.02,10,10,7,12,4,,0.00,2,,198
2013-5-19,89,78,68,73,71,66,100,84,55,30.10,30.06,29.99,10,8,0,15,2,23,0.00,4,,153
2013-5-20,84,76,69,75,71,70,100,86,62,30.11,30.06,30.01,10,9,2,9,1,,0.00,1,,154
2013-5-21,91,78,66,73,70,66,100,80,52,30.06,30.01,29.95,10,9,2,13,3,30,0.00,1,,142
2013-5-22,87,78,68,73,71,68,100,84,58,30.02,29.97,29.91,10,8,0,13,2,,0.00,3,,137
2013-5-23,89,79,69,72,70,66,100,76,46,29.99,29.96,29.91,10,10,7,15,5,22,0.00,2,,285
2013-5-24,89,78,68,68,62,57,88,60,33,30.14,30.03,29.94,10,10,10,16,6,21,0.00,0,,324
2013-5-25,86,70,55,63,56,52,94,60,35,30.29,30.20,30.14,10,10,10,10,4,,0.00,0,,76
2013-5-26,87,72,57,64,60,57,100,65,35,30.26,30.20,30.14,10,10,5,8,2,,0.00,0,,171
2013-5-27,89,76,62,66,63,59,94,67,43,30.23,30.19,30.14,10,10,10,13,3,18,0.00,0,,130
2013-5-28,89,76,62,68,66,63,100,72,46,30.20,30.17,30.13,10,9,2,15,5,20,0.00,1,,119
2013-5-29,91,78,64,72,69,64,100,77,49,30.19,30.15,30.11,10,9,4,15,4,21,0.00,1,,109
2013-5-30,91,81,71,75,72,70,100,79,52,30.20,30.15,30.11,10,9,4,18,7,28,0.00,3,,103
2013-5-31,91,81,71,75,72,68,100,77,49,30.17,30.13,30.08,10,8,1,17,7,22,0.00,2,,117